Time;durP1;ratioP1;P1;durP2;ratioP2;P2;SDS_P1;SDS_P2;PMS_P1;PMS_P2;Temp;Humidity;BMP_temperature;BMP_pressure;BME280_temperature;BME280_humidity;BME280_pressure;Samples;Min_cycle;Max_cycle;Signal;HPM_P1;HPM_P2
2022/01/03 00:03:04;;;;;;;1999.90;999.90;;;;;;;12.47;69.00;100277.63;15791419;28;20048;-62
2022/01/03 00:10:38;;;;;;;1999.90;999.90;;;;;;;12.31;69.65;100262.78;15745180;28;20048;-63
2022/01/03 00:18:10;;;;;;;1999.90;999.90;;;;;;;12.36;69.58;100251.31;15755648;28;20086;-64
2022/01/03 00:25:51;;;;;;;1999.90;999.90;;;;;;;12.67;68.85;100243.00;15764384;28;20102;-61
2022/01/03 00:33:26;;;;;;;1999.90;999.90;;;;;;;12.52;68.93;100237.38;15805101;28;20044;-63
2022/01/03 00:41:01;;;;;;;1999.90;999.90;;;;;;;12.46;70.39;100224.81;15758592;28;20037;-63
2022/01/03 00:48:34;;;;;;;1999.90;999.90;;;;;;;12.30;72.61;100228.38;15753434;28;20040;-64
2022/01/03 00:56:13;;;;;;;1999.90;999.90;;;;;;;12.17;74.99;100221.19;15769073;28;20129;-62
2022/01/03 01:03:49;;;;;;;1999.90;999.90;;;;;;;11.92;76.79;100214.06;15750933;28;20291;-63
2022/01/03 01:11:28;;;;;;;1999.90;999.90;;;;;;;11.78;78.53;100198.47;15747507;28;20051;-63
2022/01/03 01:19:03;;;;;;;1999.90;999.90;;;;;;;11.83;78.40;100203.03;15742553;28;20094;-62
2022/01/03 01:34:30;;;;;;;1999.90;999.90;;;;;;;11.56;79.83;100173.81;15742408;28;20490;-60
2022/01/03 01:42:06;;;;;;;1999.90;999.90;;;;;;;11.50;79.73;100144.53;15712985;28;20051;-62
2022/01/03 01:49:45;;;;;;;1999.90;999.90;;;;;;;11.33;79.93;100148.38;15756987;28;20036;-62
2022/01/03 01:57:21;;;;;;;1999.90;999.90;;;;;;;11.03;81.64;100163.78;15749705;28;20052;-62
2022/01/03 02:05:13;;;;;;;1999.90;999.90;;;;;;;11.30;81.64;100142.69;15723309;28;20036;-61
2022/01/03 02:12:52;;;;;;;1999.90;999.90;;;;;;;10.89;82.73;100153.78;15730587;28;20044;-62
2022/01/03 02:20:36;;;;;;;1999.90;999.90;;;;;;;11.06;82.23;100129.59;15757540;28;20070;-60
2022/01/03 02:28:16;;;;;;;1999.90;999.90;;;;;;;10.88;82.34;100132.63;15757406;28;20037;-63
2022/01/03 02:35:50;;;;;;;1999.90;999.90;;;;;;;11.19;80.57;100118.06;15767426;28;20052;-63
2022/01/03 02:43:24;;;;;;;1999.90;999.90;;;;;;;10.76;80.71;100107.50;15749841;28;20451;-63
2022/01/03 02:50:58;;;;;;;1999.90;999.90;;;;;;;11.08;79.76;100114.13;15774029;28;20105;-63
2022/01/03 02:58:31;;;;;;;1999.90;999.90;;;;;;;11.10;78.97;100097.00;15778938;28;20051;-62
2022/01/03 03:06:05;;;;;;;1999.90;999.90;;;;;;;11.16;78.47;100090.03;15747155;28;20500;-63
2022/01/03 03:13:41;;;;;;;1999.90;999.90;;;;;;;11.20;77.59;100069.41;15791539;28;20497;-63
2022/01/03 03:21:15;;;;;;;1999.90;999.90;;;;;;;11.39;77.03;100087.53;15723904;28;20049;-64
2022/01/03 03:28:48;;;;;;;1999.90;999.90;;;;;;;11.25;77.47;100059.97;15766098;28;20039;-61
2022/01/03 03:36:22;;;;;;;1999.90;999.90;;;;;;;11.32;77.57;100057.38;15762549;28;20048;-64
2022/01/03 03:43:55;;;;;;;1999.90;999.90;;;;;;;11.33;77.28;100067.38;15770893;28;20387;-63
2022/01/03 03:51:31;;;;;;;1999.90;999.90;;;;;;;11.25;78.97;100058.00;15759376;28;20304;-62
2022/01/03 03:59:04;;;;;;;1999.90;999.90;;;;;;;10.83;80.49;100065.03;15764660;28;20041;-62
2022/01/03 04:06:39;;;;;;;1999.90;999.90;;;;;;;10.96;79.95;100075.06;15736198;28;20509;-63
2022/01/03 04:14:12;;;;;;;1999.90;999.90;;;;;;;10.76;80.33;100096.34;15775024;28;20051;-62
2022/01/03 04:21:46;;;;;;;1999.90;999.90;;;;;;;10.62;79.61;100093.88;15737176;28;20043;-63
2022/01/03 04:29:19;;;;;;;1999.90;999.90;;;;;;;10.87;78.01;100107.84;15742337;28;20040;-62
2022/01/03 04:36:53;;;;;;;1999.90;999.90;;;;;;;10.75;77.24;100110.66;15767765;28;20068;-62
2022/01/03 04:44:26;;;;;;;1999.90;999.90;;;;;;;10.80;75.24;100125.16;15751534;28;20060;-64
2022/01/03 04:52:00;;;;;;;1999.90;999.90;;;;;;;10.51;75.63;100133.75;15751368;28;20036;-64
2022/01/03 04:59:33;;;;;;;1999.90;999.90;;;;;;;10.59;75.63;100158.75;15745891;28;20036;-63
2022/01/03 05:07:07;;;;;;;1999.90;999.90;;;;;;;10.23;77.46;100148.34;15772536;28;20040;-61
2022/01/03 05:14:40;;;;;;;1999.90;999.90;;;;;;;10.03;80.40;100177.06;15727045;28;20080;-61
2022/01/03 05:22:14;;;;;;;1999.90;999.90;;;;;;;9.98;82.66;100192.00;15771123;28;20086;-62
2022/01/03 05:29:47;;;;;;;1999.90;999.90;;;;;;;10.11;83.05;100204.03;15746604;28;20080;-63
2022/01/03 05:37:21;;;;;;;1999.90;999.90;;;;;;;10.14;82.63;100217.28;15742178;28;20536;-63
2022/01/03 05:44:55;;;;;;;1999.90;999.90;;;;;;;10.15;82.54;100226.47;15738639;28;20071;-63
2022/01/03 05:52:30;;;;;;;1999.90;999.90;;;;;;;10.29;82.36;100229.78;15714628;28;20044;-63
2022/01/03 06:00:11;;;;;;;1999.90;999.90;;;;;;;10.56;80.97;100240.34;15722312;28;20044;-62
2022/01/03 06:07:47;;;;;;;1999.90;999.90;;;;;;;10.34;81.58;100257.50;15721525;28;20040;-60
2022/01/03 06:15:26;;;;;;;1999.90;999.90;;;;;;;10.25;81.68;100265.13;15744561;28;20036;-60
2022/01/03 06:23:01;;;;;;;;;;;;;;;10.73;79.56;100272.00;15738611;28;20071;-61
2022/01/03 06:30:33;;;;;;;1999.90;999.90;;;;;;;10.49;79.28;100281.13;15751973;28;19920;-62
2022/01/03 06:38:08;;;;;;;1999.90;999.90;;;;;;;10.69;79.07;100285.84;15753747;28;20401;-62
2022/01/03 06:45:41;;;;;;;1999.90;999.90;;;;;;;10.74;78.39;100302.38;15753538;28;20036;-62
2022/01/03 06:53:17;;;;;;;1999.90;999.90;;;;;;;10.96;77.33;100315.13;15766816;28;20533;-61
2022/01/03 07:00:49;;;;;;;1999.90;999.90;;;;;;;10.70;76.47;100326.53;15764739;28;20135;-62
2022/01/03 07:08:23;;;;;;;1999.90;999.90;;;;;;;11.00;75.61;100330.00;15726414;28;20066;-61
2022/01/03 07:23:48;;;;;;;1999.90;999.90;;;;;;;10.92;78.18;100353.25;15771635;28;20049;-62
2022/01/03 07:31:21;;;;;;;1999.90;999.90;;;;;;;11.09;78.20;100366.22;15714692;28;20072;-64
2022/01/03 07:38:55;;;;;;;1999.90;999.90;;;;;;;11.33;78.09;100371.84;15748515;28;20071;-62
2022/01/03 07:46:28;;;;;;;1999.90;999.90;;;;;;;11.27;78.15;100373.25;15748551;28;20048;-62
2022/01/03 07:54:02;;;;;;;1999.90;999.90;;;;;;;11.06;80.06;100378.91;15713329;28;20074;-62
2022/01/03 08:01:34;;;;;;;1999.90;999.90;;;;;;;10.80;80.66;100372.75;15756554;28;20082;-62
2022/01/03 08:09:08;;;;;;;1999.90;999.90;;;;;;;10.50;81.47;100374.81;15791923;28;20036;-61
2022/01/03 08:16:41;;;;;;;1999.90;999.90;;;;;;;10.80;79.46;100381.13;15758042;28;20130;-59
2022/01/03 08:24:15;;;;;;;1999.90;999.90;;;;;;;10.65;80.78;100386.19;15761245;28;20061;-61
2022/01/03 08:31:48;;;;;;;1999.90;999.90;;;;;;;10.82;79.05;100396.34;15768982;28;20044;-61
2022/01/03 08:39:25;;;;;;;1999.90;999.90;;;;;;;10.94;78.65;100407.59;15784127;28;20051;-65
2022/01/03 08:46:58;;;;;;;1999.90;999.90;;;;;;;10.74;78.75;100402.84;15768739;28;20326;-64
2022/01/03 08:54:32;;;;;;;1999.90;999.90;;;;;;;10.96;78.67;100416.44;15759758;28;20043;-64
2022/01/03 09:02:05;;;;;;;1999.90;999.90;;;;;;;11.10;78.27;100404.16;15781311;28;20211;-62
2022/01/03 09:09:39;;;;;;;1999.90;999.90;;;;;;;11.37;76.49;100403.53;15781799;28;20040;-59
2022/01/03 09:17:11;;;;;;;1999.90;999.90;;;;;;;10.80;76.35;100415.41;15777769;28;20144;-63
2022/01/03 09:24:54;;;;;;;1999.90;999.90;;;;;;;10.67;77.27;100405.38;15784521;28;20052;-58
2022/01/03 09:32:27;;;;;;;1999.90;999.90;;;;;;;10.55;79.83;100417.28;15759305;28;20122;-62
2022/01/03 09:40:02;;;;;;;1999.90;999.90;;;;;;;10.74;81.06;100429.94;15803486;28;20036;-63
2022/01/03 09:47:38;;;;;;;1999.90;999.90;;;;;;;10.91;80.34;100432.56;15758881;28;20052;-60
2022/01/03 09:55:12;;;;;;;1999.90;999.90;;;;;;;10.98;80.09;100428.06;15721031;28;20048;-59
2022/01/03 10:02:46;;;;;;;1999.90;999.90;;;;;;;11.45;77.78;100427.75;15775597;28;20036;-59
2022/01/03 10:10:20;;;;;;;1999.90;999.90;;;;;;;11.87;76.14;100416.41;15784208;28;20043;-61
2022/01/03 10:17:52;;;;;;;1999.90;999.90;;;;;;;12.39;74.41;100418.47;15742627;28;20094;-62
2022/01/03 10:25:29;;;;;;;1999.90;999.90;;;;;;;12.95;70.43;100404.56;15777604;28;20048;-60
2022/01/03 10:33:04;;;;;;;1999.90;999.90;;;;;;;14.30;66.13;100396.84;15754800;28;20436;-61
2022/01/03 10:40:39;;;;;;;1999.90;999.90;;;;;;;13.58;67.48;100399.09;15802005;28;20124;-61
2022/01/03 10:48:29;;;;;;;1999.90;999.90;;;;;;;13.18;67.65;100407.59;15783268;28;20047;-61
2022/01/03 10:56:21;;;;;;;1999.90;999.90;;;;;;;13.11;67.67;100397.00;15777650;28;20048;-61
2022/01/03 11:03:55;;;;;;;1999.90;999.90;;;;;;;12.51;68.47;100400.88;15787566;28;20036;-60
2022/01/03 11:11:35;;;;;;;1999.90;999.90;;;;;;;12.56;68.94;100397.81;15812372;28;20036;-62
2022/01/03 11:19:08;;;;;;;1999.90;999.90;;;;;;;12.31;68.33;100388.66;15767422;28;20062;-62
2022/01/03 11:26:47;;;;;;;1999.90;999.90;;;;;;;12.33;68.80;100384.34;15773687;28;20045;-63
2022/01/03 11:34:23;;;;;;;1999.90;999.90;;;;;;;12.52;67.98;100380.91;15754812;28;20051;-61
2022/01/03 11:41:57;;;;;;;1999.90;999.90;;;;;;;12.30;67.55;100373.06;15769280;28;20556;-63
2022/01/03 11:49:30;;;;;;;1999.90;999.90;;;;;;;12.65;66.50;100374.09;15729191;28;20040;-61
2022/01/03 11:57:16;;;;;;;1999.90;999.90;;;;;;;12.75;65.36;100360.78;15784264;28;20398;-61
2022/01/03 12:04:58;;;;;;;1999.90;999.90;;;;;;;12.44;65.33;100353.88;15791219;28;20099;-62
2022/01/03 12:12:34;;;;;;;1999.90;999.90;;;;;;;12.43;64.89;100338.28;15746077;28;20050;-62
2022/01/03 12:20:09;;;;;;;1999.90;999.90;;;;;;;12.46;64.46;100331.94;15745162;28;20333;-60
2022/01/03 12:27:43;;;;;;;1999.90;999.90;;;;;;;13.38;61.99;100330.09;15732677;28;20070;-62
2022/01/03 12:35:24;;;;;;;1999.90;999.90;;;;;;;13.19;62.45;100328.81;15780850;28;20036;-61
2022/01/03 12:43:00;;;;;;;1999.90;999.90;;;;;;;13.02;61.59;100323.53;15731302;28;20444;-61
2022/01/03 12:50:37;;;;;;;1999.90;999.90;;;;;;;13.10;60.54;100316.13;15742107;28;20396;-61
2022/01/03 12:58:41;;;;;;;1999.90;999.90;;;;;;;13.29;60.76;100305.06;15742707;28;20125;-62
2022/01/03 13:06:16;;;;;;;1999.90;999.90;;;;;;;12.82;60.77;100299.34;15728437;28;20078;-62
2022/01/03 13:13:51;;;;;;;1999.90;999.90;;;;;;;13.33;59.88;100291.13;15752121;28;20517;-62
2022/01/03 13:21:26;;;;;;;1999.90;999.90;;;;;;;13.93;57.84;100280.56;15738716;28;20039;-63
2022/01/03 13:29:01;;;;;;;1999.90;999.90;;;;;;;15.75;52.75;100271.66;15763572;28;20048;-64
2022/01/03 13:36:35;;;;;;;1999.90;999.90;;;;;;;14.13;56.71;100276.59;15747592;28;20062;-62
2022/01/03 13:44:19;;;;;;;1999.90;999.90;;;;;;;13.39;57.43;100270.88;15733806;28;20176;-63
2022/01/03 13:51:56;;;;;;;1999.90;999.90;;;;;;;13.28;57.72;100265.03;15763854;28;20557;-62
2022/01/03 13:59:33;;;;;;;1999.90;999.90;;;;;;;13.05;57.47;100264.00;15771254;28;20047;-66
2022/01/03 14:07:08;;;;;;;1999.90;999.90;;;;;;;12.78;57.58;100253.66;15791640;28;20098;-65
2022/01/03 14:14:46;;;;;;;1999.90;999.90;;;;;;;12.71;57.84;100245.88;15766379;28;20040;-65
2022/01/03 14:22:20;;;;;;;1999.90;999.90;;;;;;;12.77;57.50;100252.03;15761936;28;20102;-65
2022/01/03 14:29:54;;;;;;;;;;;;;;;13.10;57.21;100258.13;15807250;28;20443;-65
2022/01/03 14:37:30;;;;;;;1999.90;999.90;;;;;;;12.51;59.23;100252.53;15814524;28;20284;-64
2022/01/03 14:45:16;;;;;;;1999.90;999.90;;;;;;;12.55;58.99;100253.44;15805866;28;20042;-65
2022/01/03 14:52:49;;;;;;;1999.90;999.90;;;;;;;12.92;59.01;100248.44;15764355;28;20052;-64
2022/01/03 15:00:23;;;;;;;1999.90;999.90;;;;;;;12.83;58.72;100243.03;15779024;28;20044;-65
2022/01/03 15:07:56;;;;;;;1999.90;999.90;;;;;;;12.60;59.22;100236.38;15760084;28;20045;-66
2022/01/03 15:15:34;;;;;;;1999.90;999.90;;;;;;;12.49;59.99;100235.28;15802657;28;20394;-65
2022/01/03 15:23:07;;;;;;;1999.90;999.90;;;;;;;12.33;60.66;100227.66;15780094;28;20686;-64
2022/01/03 15:30:43;;;;;;;1999.90;999.90;;;;;;;12.31;61.10;100213.22;15775235;28;20053;-62
2022/01/03 15:38:16;;;;;;;1999.90;999.90;;;;;;;12.12;61.93;100205.50;15733847;28;20060;-63
2022/01/03 15:45:51;;;;;;;;;;;;;;;12.05;62.43;100221.25;15746942;28;20513;-63
2022/01/03 15:53:25;;;;;;;1999.90;999.90;;;;;;;11.91;62.69;100215.25;15795692;28;19920;-64
2022/01/03 16:00:59;;;;;;;1999.90;999.90;;;;;;;11.85;62.84;100209.88;15779921;28;20032;-65
2022/01/03 16:08:32;;;;;;;1999.90;999.90;;;;;;;11.23;63.85;100204.72;15799024;28;20060;-65
2022/01/03 16:16:06;;;;;;;1999.90;999.90;;;;;;;11.12;64.03;100200.78;15789720;28;20054;-66
2022/01/03 16:23:39;;;;;;;1999.90;999.90;;;;;;;11.36;63.35;100191.56;15743058;28;20040;-64
2022/01/03 16:31:13;;;;;;;1999.90;999.90;;;;;;;11.18;63.64;100185.44;15760446;28;20131;-64
2022/01/03 16:38:46;;;;;;;1999.90;999.90;;;;;;;11.09;63.94;100177.16;15757778;28;20045;-64
2022/01/03 16:46:20;;;;;;;1999.90;999.90;;;;;;;11.09;64.29;100168.78;15747345;28;20094;-65
2022/01/03 16:53:53;;;;;;;1999.90;999.90;;;;;;;10.97;64.52;100166.81;15772725;28;20036;-63
2022/01/03 17:01:27;;;;;;;1999.90;999.90;;;;;;;11.10;64.14;100161.22;15733426;28;20045;-62
2022/01/03 17:09:17;;;;;;;1999.90;999.90;;;;;;;10.98;64.16;100151.69;15750499;28;20063;-65
2022/01/03 17:16:55;;;;;;;1999.90;999.90;;;;;;;10.81;64.55;100139.94;15746108;28;20045;-63
2022/01/03 17:24:28;;;;;;;1999.90;999.90;;;;;;;10.54;65.38;100147.84;15769566;28;20435;-66
2022/01/03 17:32:02;;;;;;;1999.90;999.90;;;;;;;10.32;66.50;100146.28;15765519;28;20036;-63
2022/01/03 17:39:35;;;;;;;1999.90;999.90;;;;;;;10.12;67.34;100133.19;15774004;28;20041;-64
2022/01/03 17:47:09;;;;;;;1999.90;999.90;;;;;;;10.11;67.55;100137.13;15739770;28;20040;-64
2022/01/03 17:54:43;;;;;;;1999.90;999.90;;;;;;;10.05;68.39;100136.53;15766837;28;20048;-64
2022/01/03 18:02:17;;;;;;;1999.90;999.90;;;;;;;10.03;68.77;100127.69;15730570;28;20525;-64
2022/01/03 18:09:50;;;;;;;1999.90;999.90;;;;;;;9.98;69.57;100121.50;15762182;28;20049;-64
2022/01/03 18:17:24;;;;;;;1999.90;999.90;;;;;;;10.03;69.45;100110.16;15801511;28;20102;-67
2022/01/03 18:24:57;;;;;;;1999.90;999.90;;;;;;;9.94;69.16;100110.25;15742588;28;20049;-67
2022/01/03 18:32:31;;;;;;;1999.90;999.90;;;;;;;9.89;70.21;100095.69;15765945;28;20039;-67
2022/01/03 18:40:05;;;;;;;1999.90;999.90;;;;;;;9.53;71.44;100086.88;15783330;28;20037;-66
2022/01/03 18:47:39;;;;;;;1999.90;999.90;;;;;;;9.35;72.76;100079.00;15783340;28;20044;-67
2022/01/03 18:55:12;;;;;;;1999.90;999.90;;;;;;;9.54;72.43;100077.34;15779900;28;20044;-65
2022/01/03 19:02:46;;;;;;;1999.90;999.90;;;;;;;9.47;73.10;100081.84;15743894;28;20039;-64
2022/01/03 19:10:18;;;;;;;1999.90;999.90;;;;;;;9.58;72.98;100057.16;15763162;28;20175;-66
2022/01/03 19:17:52;;;;;;;1999.90;999.90;;;;;;;9.51;73.61;100052.16;15767233;28;20051;-64
2022/01/03 19:25:25;;;;;;;1999.90;999.90;;;;;;;9.65;73.31;100044.31;15814572;28;20051;-62
2022/01/03 19:33:06;;;;;;;1999.90;999.90;;;;;;;9.68;73.48;100040.84;15819064;28;20517;-62
2022/01/03 19:40:39;;;;;;;1999.90;999.90;;;;;;;9.81;72.85;100023.03;15774911;28;20407;-64
2022/01/03 19:48:15;;;;;;;1999.90;999.90;;;;;;;9.81;73.02;100016.63;15764606;28;20072;-62
2022/01/03 19:55:48;;;;;;;1999.90;999.90;;;;;;;9.86;72.78;100021.16;15782254;28;20045;-63
2022/01/03 20:03:22;;;;;;;1999.90;999.90;;;;;;;9.92;72.85;100033.72;15760476;28;20144;-62
2022/01/03 20:10:55;;;;;;;1999.90;999.90;;;;;;;9.98;72.42;100026.75;15767071;28;20048;-62
2022/01/03 20:18:29;;;;;;;1999.90;999.90;;;;;;;10.22;71.49;100028.81;15826594;28;20481;-61
2022/01/03 20:26:01;;;;;;;1999.90;999.90;;;;;;;9.95;72.13;100019.09;15767230;28;20069;-65
2022/01/03 20:33:35;;;;;;;1999.90;999.90;;;;;;;10.19;71.47;100019.13;15788106;28;20090;-62
2022/01/03 20:41:09;;;;;;;1999.90;999.90;;;;;;;10.13;71.29;100006.59;15786103;28;20063;-64
2022/01/03 20:48:43;;;;;;;1999.90;999.90;;;;;;;10.24;70.92;100005.00;15791174;28;20554;-65
2022/01/03 20:56:15;;;;;;;1999.90;999.90;;;;;;;10.16;70.53;100005.88;15764163;28;20048;-64
2022/01/03 21:03:49;;;;;;;1999.90;999.90;;;;;;;10.26;69.97;100007.44;15766850;28;20047;-62
2022/01/03 21:11:22;;;;;;;1999.90;999.90;;;;;;;10.19;69.76;100004.38;15734767;28;20555;-64
2022/01/03 21:18:56;;;;;;;1999.90;999.90;;;;;;;9.92;70.82;99997.50;15762347;28;20040;-65
2022/01/03 21:26:28;;;;;;;1999.90;999.90;;;;;;;9.64;71.63;99994.53;15791306;28;20036;-65
2022/01/03 21:34:02;;;;;;;1999.90;999.90;;;;;;;9.83;70.63;99998.41;15783326;28;20044;-65
2022/01/03 21:41:35;;;;;;;1999.90;999.90;;;;;;;9.82;70.27;99990.41;15761355;28;20452;-66
2022/01/03 21:49:09;;;;;;;1999.90;999.90;;;;;;;9.72;70.60;99986.09;15790522;28;20048;-64
2022/01/03 21:56:42;;;;;;;1999.90;999.90;;;;;;;9.68;70.78;99979.56;15760125;28;20054;-65
2022/01/03 22:04:16;;;;;;;1999.90;999.90;;;;;;;9.64;70.63;99967.47;15779385;28;20048;-64
2022/01/03 22:11:49;;;;;;;1999.90;999.90;;;;;;;9.57;70.73;99967.22;15746724;28;20048;-66
2022/01/03 22:19:22;;;;;;;1999.90;999.90;;;;;;;9.47;70.90;99953.75;15777994;28;20057;-65
2022/01/03 22:26:55;;;;;;;1999.90;999.90;;;;;;;9.37;71.58;99945.81;15708040;28;20032;-65
2022/01/03 22:34:30;;;;;;;1999.90;999.90;;;;;;;9.23;71.62;99938.59;15759817;28;20047;-65
2022/01/03 22:42:03;;;;;;;1999.90;999.90;;;;;;;9.07;72.18;99926.50;15746665;28;20109;-65
2022/01/03 22:49:37;;;;;;;1999.90;999.90;;;;;;;8.79;73.04;99917.91;15771315;28;20676;-66
2022/01/03 22:57:10;;;;;;;1999.90;999.90;;;;;;;8.70;73.26;99913.56;15771026;28;20464;-66
2022/01/03 23:04:43;;;;;;;1999.90;999.90;;;;;;;8.67;73.42;99926.19;15791583;28;20644;-66
2022/01/03 23:12:16;;;;;;;1999.90;999.90;;;;;;;8.70;73.23;99908.00;15756901;28;20044;-65
2022/01/03 23:19:50;;;;;;;1999.90;999.90;;;;;;;8.54;74.11;99899.44;15763936;28;20109;-64
2022/01/03 23:27:25;;;;;;;1999.90;999.90;;;;;;;8.28;75.64;99889.31;15752456;28;20060;-64
2022/01/03 23:34:59;;;;;;;1999.90;999.90;;;;;;;8.38;74.70;99882.56;15779057;28;20390;-65
2022/01/03 23:42:31;;;;;;;;;;;;;;;8.51;74.68;99867.56;15782249;28;20044;-64
2022/01/03 23:50:08;;;;;;;1999.90;999.90;;;;;;;8.32;75.80;99862.44;15759704;28;20015;-64
2022/01/03 23:57:40;;;;;;;1999.90;999.90;;;;;;;8.29;76.03;99856.75;15777597;28;20102;-64
